createdAt,value
2018-11-13T00:01:19.453Z,16.70
2018-11-13T00:03:47.890Z,19.13
2018-11-13T00:06:16.463Z,19.00
2018-11-13T00:08:45.043Z,20.27
2018-11-13T00:11:13.626Z,19.77
2018-11-13T00:13:42.145Z,23.47
2018-11-13T00:16:10.827Z,17.30
2018-11-13T00:18:39.280Z,22.17
2018-11-13T00:21:08.069Z,21.77
2018-11-13T00:23:36.687Z,18.73
2018-11-13T00:26:05.208Z,18.40
2018-11-13T00:28:34.127Z,18.33
2018-11-13T00:31:02.914Z,18.07
2018-11-13T00:33:31.354Z,23.00
2018-11-13T00:36:00.122Z,19.57
2018-11-13T00:38:28.694Z,21.07
2018-11-13T00:40:57.137Z,21.37
2018-11-13T00:43:25.862Z,21.60
2018-11-13T00:45:54.915Z,18.87
2018-11-13T00:48:23.064Z,19.83
2018-11-13T00:50:51.927Z,19.70
2018-11-13T00:53:20.494Z,20.57
2018-11-13T00:55:48.965Z,24.67
2018-11-13T00:58:17.739Z,26.80
2018-11-13T01:00:46.850Z,25.77
2018-11-13T01:03:15.293Z,21.47
2018-11-13T01:05:44.136Z,22.20
2018-11-13T01:08:12.889Z,19.83
2018-11-13T01:10:41.337Z,21.80
2018-11-13T01:13:09.877Z,22.30
2018-11-13T01:15:38.565Z,22.03
2018-11-13T01:18:07.081Z,24.63
2018-11-13T01:20:35.609Z,28.47
2018-11-13T01:23:04.289Z,21.47
2018-11-13T01:25:32.752Z,18.70
2018-11-13T01:28:01.284Z,20.70
2018-11-13T01:30:30.045Z,18.90
2018-11-13T01:32:58.474Z,18.60
2018-11-13T01:35:27.403Z,22.03
2018-11-13T01:37:56.004Z,20.80
2018-11-13T01:40:24.489Z,26.00
2018-11-13T01:42:53.460Z,18.93
2018-11-13T01:45:22.132Z,28.07
2018-11-13T01:47:50.628Z,23.10
2018-11-13T01:50:19.515Z,23.27
2018-11-13T01:52:48.509Z,28.10
2018-11-13T01:55:17.080Z,25.80
2018-11-13T01:57:46.125Z,27.50
2018-11-13T02:00:23.830Z,31.23
2018-11-13T02:02:53.540Z,30.57
2018-11-13T02:05:24.501Z,30.70
2018-11-13T02:07:53.578Z,28.97
2018-11-13T02:10:22.133Z,27.43
2018-11-13T02:12:51.446Z,27.53
2018-11-13T02:15:20.457Z,29.17
2018-11-13T02:17:48.971Z,30.40
2018-11-13T02:20:19.973Z,28.47
2018-11-13T02:22:48.448Z,32.50
2018-11-13T02:25:17.962Z,32.60
2018-11-13T02:27:46.781Z,30.60
2018-11-13T02:30:17.196Z,29.73
2018-11-13T02:32:46.258Z,32.30
2018-11-13T02:35:15.313Z,35.63
2018-11-13T02:37:43.964Z,32.90
2018-11-13T02:40:12.461Z,34.03
2018-11-13T02:42:41.388Z,32.07
2018-11-13T02:45:12.432Z,42.50
2018-11-13T02:47:41.533Z,39.17
2018-11-13T02:50:12.189Z,45.03
2018-11-13T02:52:41.137Z,34.37
2018-11-13T02:55:10.537Z,33.57
2018-11-13T02:57:39.385Z,46.70
2018-11-13T03:00:10.609Z,44.70
2018-11-13T03:02:39.190Z,40.97
2018-11-13T03:05:09.433Z,39.00
2018-11-13T03:07:37.901Z,44.47
2018-11-13T03:10:08.111Z,39.07
2018-11-13T03:12:37.145Z,42.73
2018-11-13T03:15:06.445Z,46.20
2018-11-13T03:17:35.454Z,41.50
2018-11-13T03:20:04.729Z,49.97
2018-11-13T03:22:33.214Z,54.33
2018-11-13T03:25:01.784Z,69.07
2018-11-13T03:27:30.552Z,50.87
2018-11-13T03:29:59.015Z,49.00
2018-11-13T03:32:27.595Z,46.17
2018-11-13T03:34:56.214Z,44.03
2018-11-13T03:37:24.689Z,39.20
2018-11-13T03:39:53.315Z,43.90
2018-11-13T03:42:21.991Z,38.70
2018-11-13T03:44:50.449Z,44.50
2018-11-13T03:47:19.309Z,35.37
2018-11-13T03:49:48.040Z,35.97
2018-11-13T03:52:16.886Z,35.30
2018-11-13T03:54:45.412Z,35.07
2018-11-13T03:57:14.192Z,32.40
2018-11-13T03:59:42.661Z,29.53
2018-11-13T04:02:11.491Z,31.53
2018-11-13T04:04:40.035Z,32.30
2018-11-13T04:07:15.000Z,30.00
2018-11-13T04:09:43.550Z,30.73
2018-11-13T04:12:12.009Z,29.77
2018-11-13T04:14:40.596Z,28.50
2018-11-13T04:17:09.205Z,30.00
2018-11-13T04:19:37.637Z,30.93
2018-11-13T04:22:06.745Z,33.77
2018-11-13T04:24:35.333Z,29.63
2018-11-13T04:27:03.813Z,38.60
2018-11-13T04:29:32.566Z,32.60
2018-11-13T04:32:01.818Z,32.53
2018-11-13T04:34:30.257Z,34.63
2018-11-13T04:36:58.931Z,30.17
2018-11-13T04:39:27.577Z,30.00
2018-11-13T04:41:56.025Z,26.40
2018-11-13T04:44:24.916Z,28.23
2018-11-13T04:46:53.449Z,29.13
2018-11-13T04:49:21.930Z,33.83
2018-11-13T04:51:50.666Z,49.30
2018-11-13T04:54:26.155Z,43.83
2018-11-13T04:56:54.804Z,42.50
2018-11-13T04:59:23.401Z,43.13
2018-11-13T05:01:52.298Z,38.53
2018-11-13T05:04:20.869Z,52.70
2018-11-13T05:06:49.317Z,49.87
2018-11-13T05:09:17.829Z,52.50
2018-11-13T05:11:46.408Z,46.53
2018-11-13T05:14:14.864Z,44.70
2018-11-13T05:16:43.474Z,43.90
2018-11-13T05:19:12.406Z,49.17
2018-11-13T05:21:40.913Z,54.13
2018-11-13T05:24:09.792Z,57.03
2018-11-13T05:26:38.360Z,40.70
2018-11-13T05:29:06.802Z,52.73
2018-11-13T05:31:35.361Z,54.80
2018-11-13T05:34:04.145Z,57.67
2018-11-13T05:36:32.602Z,57.73
2018-11-13T05:39:01.261Z,63.37
2018-11-13T05:41:29.841Z,54.10
2018-11-13T05:43:58.305Z,65.60
2018-11-13T05:46:27.116Z,66.20
2018-11-13T05:48:55.669Z,61.40
2018-11-13T05:51:24.121Z,56.67
2018-11-13T05:53:52.881Z,51.10
2018-11-13T05:56:21.702Z,52.27
2018-11-13T05:58:50.268Z,55.10
2018-11-13T06:01:19.190Z,49.97
2018-11-13T06:03:47.893Z,44.40
2018-11-13T06:06:16.416Z,46.77
2018-11-13T06:08:45.161Z,49.60
2018-11-13T06:11:13.826Z,54.57
2018-11-13T06:13:42.286Z,50.30
2018-11-13T06:16:10.902Z,45.13
2018-11-13T06:18:39.565Z,35.33
2018-11-13T06:21:08.082Z,43.10
2018-11-13T06:23:36.712Z,38.83
2018-11-13T06:26:05.310Z,37.87
2018-11-13T06:28:33.752Z,42.17
2018-11-13T06:31:02.298Z,44.50
2018-11-13T06:33:31.070Z,45.33
2018-11-13T06:35:59.605Z,43.10
2018-11-13T06:38:28.469Z,46.60
2018-11-13T06:40:57.058Z,41.33
2018-11-13T06:43:25.511Z,41.33
2018-11-13T06:45:54.530Z,40.73
2018-11-13T06:48:23.548Z,42.73
2018-11-13T06:50:51.993Z,37.07
2018-11-13T06:53:20.689Z,36.23
2018-11-13T06:55:52.179Z,32.97
2018-11-13T06:58:20.610Z,32.30
2018-11-13T07:00:49.426Z,36.13
2018-11-13T07:03:18.133Z,29.27
2018-11-13T07:05:46.582Z,28.43
2018-11-13T07:08:15.169Z,36.67
2018-11-13T07:10:44.440Z,32.70
2018-11-13T07:13:12.901Z,31.80
2018-11-13T07:15:41.866Z,30.77
2018-11-13T07:18:11.091Z,27.13
2018-11-13T07:20:39.656Z,25.27
2018-11-13T07:23:08.287Z,29.20
2018-11-13T07:25:36.944Z,28.37
2018-11-13T07:28:05.417Z,28.70
2018-11-13T07:30:33.942Z,30.53
2018-11-13T07:33:02.898Z,32.50
2018-11-13T07:35:31.338Z,33.33
2018-11-13T07:38:00.586Z,24.83
2018-11-13T07:40:29.405Z,32.10
2018-11-13T07:42:57.903Z,33.53
2018-11-13T07:45:26.753Z,35.40
2018-11-13T07:47:55.659Z,30.87
2018-11-13T07:50:24.169Z,33.77
2018-11-13T07:52:52.802Z,36.37
2018-11-13T07:55:21.679Z,29.90
2018-11-13T07:57:50.137Z,34.37
2018-11-13T08:00:22.770Z,28.27
2018-11-13T08:02:52.563Z,27.43
2018-11-13T08:05:21.477Z,30.23
2018-11-13T08:07:50.115Z,26.73
2018-11-13T08:10:18.753Z,25.80
2018-11-13T08:12:47.895Z,22.80
2018-11-13T08:15:17.753Z,26.17
2018-11-13T08:17:46.257Z,24.37
2018-11-13T08:20:15.708Z,26.83
2018-11-13T08:22:45.006Z,20.73
2018-11-13T08:25:13.777Z,19.57
2018-11-13T08:27:42.717Z,24.47
2018-11-13T08:30:14.946Z,21.47
2018-11-13T08:32:44.074Z,22.07
2018-11-13T08:35:12.534Z,25.17
2018-11-13T08:37:41.718Z,22.70
2018-11-13T08:40:12.606Z,24.00
2018-11-13T08:42:41.490Z,14.87
2018-11-13T08:45:10.844Z,20.37
2018-11-13T08:47:39.777Z,16.53
2018-11-13T08:50:08.527Z,23.83
2018-11-13T08:52:37.428Z,20.43
2018-11-13T08:55:06.777Z,20.20
2018-11-13T08:57:35.885Z,21.13
2018-11-13T09:00:05.320Z,20.90
2018-11-13T09:02:33.867Z,27.23
2018-11-13T09:05:02.448Z,14.83
2018-11-13T09:07:31.106Z,28.23
2018-11-13T09:09:59.659Z,19.40
2018-11-13T09:12:28.311Z,17.70
2018-11-13T09:14:57.135Z,21.57
2018-11-13T09:17:25.658Z,14.87
2018-11-13T09:19:54.156Z,17.10
2018-11-13T09:22:23.213Z,22.70
2018-11-13T09:24:52.206Z,21.00
2018-11-13T09:27:20.688Z,18.13
2018-11-13T09:29:49.425Z,17.33
2018-11-13T09:32:18.346Z,13.27
2018-11-13T09:34:46.779Z,13.47
2018-11-13T09:37:15.644Z,11.30
2018-11-13T09:39:44.413Z,13.93
2018-11-13T09:42:12.936Z,15.97
2018-11-13T09:44:41.524Z,13.70
2018-11-13T09:47:10.073Z,15.23
2018-11-13T09:49:38.567Z,12.53
2018-11-13T09:52:07.721Z,19.63
2018-11-13T09:54:36.433Z,18.10
2018-11-13T09:57:04.957Z,20.70
2018-11-13T09:59:33.495Z,21.73
2018-11-13T10:02:03.598Z,22.10
2018-11-13T10:04:32.297Z,18.30
2018-11-13T10:07:00.284Z,18.77
2018-11-13T10:09:28.950Z,22.43
2018-11-13T10:11:57.418Z,20.80
2018-11-13T10:14:26.181Z,12.57
2018-11-13T10:16:55.009Z,13.37
2018-11-13T10:19:23.533Z,16.00
2018-11-13T10:21:52.242Z,13.10
2018-11-13T10:24:20.778Z,13.73
2018-11-13T10:26:49.388Z,17.27
2018-11-13T10:29:18.302Z,19.67
2018-11-13T10:31:47.120Z,12.03
2018-11-13T10:34:15.610Z,20.73
2018-11-13T10:36:44.983Z,15.53
2018-11-13T10:39:13.817Z,9.50
2018-11-13T10:41:42.305Z,12.30
2018-11-13T10:44:11.030Z,11.70
2018-11-13T10:46:39.762Z,14.33
2018-11-13T10:49:08.539Z,19.27
2018-11-13T10:51:37.390Z,16.07
2018-11-13T10:54:06.115Z,16.80
2018-11-13T10:56:34.639Z,17.00
2018-11-13T10:59:03.690Z,16.17
2018-11-13T11:01:37.495Z,18.90
2018-11-13T11:05:13.008Z,19.03
2018-11-13T11:07:41.481Z,12.87
2018-11-13T11:10:10.733Z,15.60
2018-11-13T11:12:39.740Z,15.90
2018-11-13T11:15:09.073Z,15.37
2018-11-13T11:17:38.009Z,25.17
2018-11-13T11:20:08.429Z,16.73
2018-11-13T11:22:37.012Z,14.17
2018-11-13T11:25:06.867Z,18.03
2018-11-13T11:27:35.790Z,14.57
2018-11-13T11:30:04.744Z,13.30
2018-11-13T11:32:33.286Z,12.30
2018-11-13T11:35:02.150Z,10.87
2018-11-13T11:37:30.919Z,13.17
2018-11-13T11:40:06.591Z,13.33
2018-11-13T11:42:35.124Z,19.73
2018-11-13T11:45:03.603Z,16.73
2018-11-13T11:47:32.639Z,14.03
2018-11-13T11:50:01.112Z,12.17
2018-11-13T11:52:29.568Z,12.20
2018-11-13T11:54:58.697Z,9.53
2018-11-13T11:57:27.606Z,13.40
2018-11-13T11:59:56.141Z,11.43
2018-11-13T12:02:25.018Z,9.97
2018-11-13T12:04:53.418Z,11.00
2018-11-13T12:07:21.867Z,11.57
2018-11-13T12:09:50.810Z,16.33
2018-11-13T12:12:19.528Z,13.30
2018-11-13T12:14:47.904Z,11.67
2018-11-13T12:17:16.862Z,11.73
2018-11-13T12:19:45.350Z,12.37
2018-11-13T12:22:14.055Z,16.23
2018-11-13T12:24:42.695Z,15.87
2018-11-13T12:27:11.169Z,18.60
2018-11-13T12:29:39.721Z,14.33
2018-11-13T12:32:07.951Z,17.70
2018-11-13T12:34:36.445Z,14.73
2018-11-13T12:37:04.889Z,17.90
2018-11-13T12:39:33.865Z,15.73
2018-11-13T12:42:02.344Z,15.67
2018-11-13T12:44:30.893Z,12.67
2018-11-13T12:46:59.513Z,14.27
2018-11-13T12:49:28.073Z,16.17
2018-11-13T12:52:01.841Z,13.83
2018-11-13T12:54:30.485Z,19.27
2018-11-13T12:56:58.949Z,17.33
2018-11-13T12:59:27.591Z,17.93
2018-11-13T13:01:56.257Z,18.13
2018-11-13T13:04:24.701Z,17.53
2018-11-13T13:06:53.334Z,14.97
2018-11-13T13:09:22.085Z,12.37
2018-11-13T13:11:50.583Z,13.50
2018-11-13T13:14:19.763Z,17.73
2018-11-13T13:16:49.769Z,15.80
2018-11-13T13:19:18.246Z,14.47
2018-11-13T13:21:47.619Z,14.10
2018-11-13T13:24:16.217Z,17.47
2018-11-13T13:26:44.665Z,16.87
2018-11-13T13:29:13.350Z,18.00
2018-11-13T13:31:41.951Z,14.30
2018-11-13T13:34:10.394Z,13.13
2018-11-13T13:36:39.411Z,14.57
2018-11-13T13:39:09.077Z,16.03
2018-11-13T13:41:37.541Z,17.97
2018-11-13T13:44:06.690Z,17.80
2018-11-13T13:46:35.565Z,15.90
2018-11-13T13:49:04.365Z,14.37
2018-11-13T13:51:32.981Z,15.63
2018-11-13T13:54:01.950Z,15.20
2018-11-13T13:56:30.486Z,16.20
2018-11-13T13:58:59.418Z,17.87
2018-11-13T14:01:27.993Z,16.47
2018-11-13T14:03:56.833Z,21.27
2018-11-13T14:06:25.837Z,17.50
2018-11-13T14:08:54.439Z,15.73
2018-11-13T14:11:22.914Z,15.60
2018-11-13T14:13:51.835Z,15.63
2018-11-13T14:16:20.617Z,21.23
2018-11-13T14:18:49.093Z,14.73
2018-11-13T14:21:18.266Z,16.13
2018-11-13T14:23:47.578Z,17.27
2018-11-13T14:26:16.082Z,15.53
2018-11-13T14:28:44.663Z,18.37
2018-11-13T14:31:13.657Z,15.60
2018-11-13T14:33:42.123Z,16.77
2018-11-13T14:36:10.949Z,14.37
2018-11-13T14:38:39.721Z,16.60
2018-11-13T14:41:08.177Z,16.97
2018-11-13T14:43:36.996Z,15.83
2018-11-13T14:46:06.136Z,16.00
2018-11-13T14:48:34.602Z,17.70
2018-11-13T14:51:03.489Z,15.73
2018-11-13T14:53:32.446Z,21.33
2018-11-13T14:56:01.913Z,20.13
2018-11-13T14:58:30.515Z,22.27
2018-11-13T15:00:59.117Z,16.97
2018-11-13T15:03:27.590Z,21.90
2018-11-13T15:05:56.411Z,16.67
2018-11-13T15:08:25.265Z,18.87
2018-11-13T15:10:54.607Z,16.63
2018-11-13T15:13:24.486Z,14.93
2018-11-13T15:15:53.376Z,19.13
2018-11-13T15:18:22.264Z,19.73
2018-11-13T15:20:52.185Z,29.00
2018-11-13T15:23:21.013Z,18.43
2018-11-13T15:25:49.574Z,20.60
2018-11-13T15:28:18.147Z,19.47
2018-11-13T15:30:48.692Z,19.20
2018-11-13T15:33:18.818Z,17.90
2018-11-13T15:35:48.284Z,17.60
2018-11-13T15:38:17.061Z,17.33
2018-11-13T15:40:45.889Z,19.90
2018-11-13T15:43:17.124Z,15.80
2018-11-13T15:45:45.889Z,16.17
2018-11-13T15:48:15.661Z,18.33
2018-11-13T15:50:44.313Z,17.70
2018-11-13T15:53:12.973Z,17.77
2018-11-13T15:55:41.488Z,12.23
2018-11-13T15:58:10.454Z,11.27
2018-11-13T16:00:40.441Z,15.67
2018-11-13T16:03:12.354Z,14.20
2018-11-13T16:05:43.218Z,13.83
2018-11-13T16:08:12.064Z,10.77
2018-11-13T16:10:40.687Z,10.40
2018-11-13T16:13:09.791Z,10.70
2018-11-13T16:15:38.382Z,11.47
2018-11-13T16:18:09.443Z,13.07
2018-11-13T16:20:38.148Z,13.40
2018-11-13T16:23:07.418Z,11.73
2018-11-13T16:25:36.032Z,10.97
2018-11-13T16:28:04.881Z,13.47
2018-11-13T16:30:34.783Z,12.83
2018-11-13T16:33:03.417Z,9.57
2018-11-13T16:35:35.422Z,15.97
2018-11-13T16:38:05.742Z,13.43
2018-11-13T16:40:34.763Z,8.83
2018-11-13T16:43:03.358Z,12.47
2018-11-13T16:45:33.314Z,10.70
2018-11-13T16:48:06.498Z,12.90
2018-11-13T16:50:39.178Z,9.00
2018-11-13T16:53:08.057Z,9.03
2018-11-13T16:55:41.822Z,8.87
2018-11-13T16:58:11.798Z,9.93
2018-11-13T17:00:40.430Z,9.77
2018-11-13T17:03:09.153Z,10.83
2018-11-13T17:05:37.983Z,8.43
2018-11-13T17:08:06.543Z,8.57
2018-11-13T17:10:39.805Z,8.73
2018-11-13T17:13:08.614Z,9.60
2018-11-13T17:15:37.109Z,7.80
2018-11-13T17:18:06.641Z,9.53
2018-11-13T17:20:35.630Z,11.43
2018-11-13T17:23:04.361Z,11.83
2018-11-13T17:25:35.509Z,10.40
2018-11-13T17:28:04.061Z,10.20
2018-11-13T17:30:33.885Z,7.60
2018-11-13T17:33:03.953Z,11.27
2018-11-13T17:35:32.947Z,9.03
2018-11-13T17:38:02.097Z,6.60
2018-11-13T17:40:32.053Z,7.07
2018-11-13T17:43:01.831Z,6.90
2018-11-13T17:45:36.605Z,7.37
2018-11-13T17:48:05.606Z,6.73
2018-11-13T17:50:35.383Z,5.90
2018-11-13T17:53:04.457Z,7.17
2018-11-13T17:55:32.962Z,6.87
2018-11-13T17:58:03.267Z,6.27
2018-11-13T18:00:34.465Z,8.60
2018-11-13T18:03:03.746Z,6.07
2018-11-13T18:05:32.731Z,5.80
2018-11-13T18:08:02.316Z,6.27
2018-11-13T18:10:31.732Z,5.97
2018-11-13T18:13:00.907Z,11.03
2018-11-13T18:15:30.029Z,7.87
2018-11-13T18:17:58.693Z,7.53
2018-11-13T18:20:28.666Z,8.13
2018-11-13T18:22:57.191Z,9.57
2018-11-13T18:25:26.234Z,9.87
2018-11-13T18:27:56.195Z,7.60
2018-11-13T18:30:25.964Z,8.27
2018-11-13T18:32:55.210Z,8.73
2018-11-13T18:35:28.139Z,8.27
2018-11-13T18:37:57.312Z,9.33
2018-11-13T18:40:26.404Z,5.80
2018-11-13T18:42:56.101Z,6.43
2018-11-13T18:45:27.033Z,7.60
2018-11-13T18:47:55.509Z,8.30
2018-11-13T18:50:25.987Z,6.63
2018-11-13T18:52:54.532Z,7.83
2018-11-13T18:55:23.005Z,8.20
2018-11-13T18:57:51.681Z,7.23
2018-11-13T19:00:22.745Z,6.33
2018-11-13T19:02:52.778Z,7.10
2018-11-13T19:05:21.841Z,7.47
2018-11-13T19:07:50.386Z,10.67
2018-11-13T19:10:26.491Z,5.83
2018-11-13T19:12:56.001Z,5.57
2018-11-13T19:15:25.721Z,7.80
2018-11-13T19:17:54.744Z,12.07
2018-11-13T19:20:24.452Z,11.17
2018-11-13T19:22:53.390Z,7.80
2018-11-13T19:25:23.509Z,13.77
2018-11-13T19:27:52.494Z,9.87
2018-11-13T19:30:21.651Z,9.17
2018-11-13T19:32:50.487Z,9.50
2018-11-13T19:35:19.669Z,7.93
2018-11-13T19:37:48.127Z,9.27
2018-11-13T19:40:34.473Z,8.93
2018-11-13T19:43:04.560Z,11.80
2018-11-13T19:45:33.020Z,10.53
2018-11-13T19:48:01.699Z,11.53
2018-11-13T19:50:32.576Z,9.60
2018-11-13T19:53:01.073Z,12.60
2018-11-13T19:55:30.768Z,9.00
2018-11-13T19:58:00.659Z,10.93
2018-11-13T20:00:31.420Z,7.13
2018-11-13T20:03:01.141Z,8.77
2018-11-13T20:05:30.445Z,7.67
2018-11-13T20:07:59.564Z,6.13
2018-11-13T20:10:30.382Z,8.10
2018-11-13T20:13:00.788Z,8.27
2018-11-13T20:15:29.941Z,7.67
2018-11-13T20:17:58.428Z,7.83
2018-11-13T20:20:28.158Z,8.93
2018-11-13T20:22:57.269Z,8.77
2018-11-13T20:25:29.474Z,9.90
2018-11-13T20:27:58.507Z,6.03
2018-11-13T20:30:28.469Z,10.77
2018-11-13T20:32:57.333Z,12.33
2018-11-13T20:35:26.093Z,10.03
2018-11-13T20:37:55.377Z,9.67
2018-11-13T20:40:27.386Z,8.93
2018-11-13T20:42:57.210Z,9.07
2018-11-13T20:45:25.810Z,8.73
2018-11-13T20:47:54.981Z,13.43
2018-11-13T20:50:24.893Z,15.67
2018-11-13T20:52:53.549Z,10.57
2018-11-13T20:55:22.213Z,11.77
2018-11-13T20:57:50.903Z,12.73
2018-11-13T21:00:23.710Z,12.63
2018-11-13T21:02:52.366Z,11.53
2018-11-13T21:05:20.887Z,9.57
2018-11-13T21:07:49.792Z,9.57
2018-11-13T21:10:19.879Z,12.47
2018-11-13T21:12:48.644Z,12.13
2018-11-13T21:15:19.059Z,9.57
2018-11-13T21:17:47.921Z,9.37
2018-11-13T21:20:17.532Z,13.33
2018-11-13T21:22:46.202Z,7.73
2018-11-13T21:25:16.137Z,10.50
2018-11-13T21:27:44.665Z,10.10
2018-11-13T21:30:19.098Z,12.03
2018-11-13T21:32:48.416Z,8.70
2018-11-13T21:35:17.202Z,14.83
2018-11-13T21:37:47.514Z,10.17
2018-11-13T21:40:17.599Z,10.97
2018-11-13T21:42:47.145Z,13.20
2018-11-13T21:45:16.235Z,14.70
2018-11-13T21:47:44.799Z,9.40
2018-11-13T21:50:14.797Z,11.60
2018-11-13T21:52:43.839Z,7.47
2018-11-13T21:55:14.230Z,9.57
2018-11-13T21:57:43.495Z,11.33
2018-11-13T22:00:17.570Z,7.93
2018-11-13T22:02:48.959Z,8.90
2018-11-13T22:05:17.546Z,8.50
2018-11-13T22:07:46.699Z,9.57
2018-11-13T22:10:15.438Z,9.13
2018-11-13T22:12:44.418Z,9.00
2018-11-13T22:15:15.428Z,11.37
2018-11-13T22:17:45.594Z,12.23
2018-11-13T22:20:15.427Z,12.67
2018-11-13T22:22:44.340Z,10.33
2018-11-13T22:25:15.225Z,12.93
2018-11-13T22:27:44.663Z,8.67
2018-11-13T22:30:15.438Z,9.53
2018-11-13T22:32:44.329Z,10.03
2018-11-13T22:35:13.545Z,9.77
2018-11-13T22:37:42.274Z,8.37
2018-11-13T22:40:13.285Z,7.77
2018-11-13T22:42:42.083Z,11.17
2018-11-13T22:45:14.236Z,8.60
2018-11-13T22:47:43.100Z,8.33
2018-11-13T22:50:15.314Z,9.77
2018-11-13T22:52:44.290Z,8.93
2018-11-13T22:55:13.392Z,9.17
2018-11-13T22:57:43.187Z,7.87
2018-11-13T23:00:16.054Z,8.53
2018-11-13T23:02:44.365Z,7.70
2018-11-13T23:05:12.834Z,10.83
2018-11-13T23:07:41.653Z,7.03
2018-11-13T23:10:11.789Z,8.73
2018-11-13T23:12:40.853Z,11.73
2018-11-13T23:15:12.243Z,11.33
2018-11-13T23:17:41.388Z,8.33
2018-11-13T23:20:12.078Z,8.90
2018-11-13T23:22:41.112Z,9.77
2018-11-13T23:25:11.546Z,11.67
2018-11-13T23:27:40.069Z,10.13
2018-11-13T23:30:12.873Z,7.27
2018-11-13T23:32:41.482Z,10.00
2018-11-13T23:35:11.061Z,7.70
2018-11-13T23:37:40.175Z,10.77
2018-11-13T23:40:10.756Z,7.87
2018-11-13T23:42:39.545Z,7.27
2018-11-13T23:45:09.357Z,7.83
2018-11-13T23:47:37.896Z,7.07
2018-11-13T23:50:07.186Z,8.47
2018-11-13T23:52:35.882Z,8.60
2018-11-13T23:55:04.386Z,7.13
2018-11-13T23:57:32.857Z,10.13
